Tulsa International Airport
KTUL : now visible

Airfield :











YOU CAN JOIN US ON...

 
LOGIN :

Register | Disclaimer

   EN    FR    IT 

 









Legend :    VFR   Marginal VFR   IFR   Intensive IFR   Very Intensive IFR
Visi :
Ceiling :
>= 8 km
>= 3000ft
5 to 8 km
1000 to 3000 ft
1500m to 5 km
500 to 1000 ft
800 to 1500m
200 to 500 ft
< 800m
< 200 ft
Symbols :   Thunderstorms  Fog  Heavy snow  Heavy precipitations  Wind > 20 kt






- Airport Elevation : 677 ft
- IATA code : TUL


KTUL - Tulsa International

CURRENT METAR :
  • 021653Z 16007KT 10SM FEW050 SCT250 33/22 A2996 RMK AO2 SLP135 T03280217 $

EXPIRED METARs :
  • 021553Z 14004KT 10SM FEW045 BKN250 32/22 A2997 RMK AO2 SLP139 T03170217 $
  • 021453Z VRB03KT 10SM FEW090 BKN250 29/22 A2998 RMK AO2 SLP142 T02940217 50011
  • 020253Z 13006KT 10SM CLR 28/18 A2990 RMK AO2 SLP115 T02830178 55001

TAF KTUL
Valid from the 02 at 18:00 until the 03 at 18:00 UTC


021722Z 0218/0318 16007KT P6SM SCT050 BKN250
KZKC FIR / North America



MET'MAP, your aeronautical weather chart ! - Copyright ORBIFLY December 2007 - Disclaimer

ORBIFLY MET'MAP TEAM :

Programming & Development : Alexandra Zaïnal
Original concept : Baudouin d'Aumeries
Technical & hardware support : Manuel Goepfert
Assistance : Marc-Olivier Méhu




SOURCES & CREDITS :

   NOAA       Earth
Advisory